Time;durP1;ratioP1;P1;durP2;ratioP2;P2;SDS_P1;SDS_P2;PMS_P1;PMS_P2;Temp;Humidity;BMP_temperature;BMP_pressure;BME280_temperature;BME280_humidity;BME280_pressure;Samples;Min_cycle;Max_cycle;Signal;HPM_P1;HPM_P2
2022/04/17 00:02:01;;;;;;;1.75;1.00;;;9.20;63.50;;;;;;5030072;28;20041;-68
2022/04/17 00:04:27;;;;;;;1.63;1.35;;;9.10;62.90;;;;;;5029719;28;20041;-68
2022/04/17 00:06:53;;;;;;;1.00;0.90;;;9.10;63.60;;;;;;5029161;28;20061;-68
2022/04/17 00:09:19;;;;;;;1.20;0.88;;;9.10;63.20;;;;;;5034660;28;20048;-68
2022/04/17 00:11:46;;;;;;;2.08;1.08;;;9.10;62.40;;;;;;5027677;28;20049;-68
2022/04/17 00:14:12;;;;;;;1.75;1.25;;;9.00;60.40;;;;;;5036157;28;20123;-69
2022/04/17 00:16:40;;;;;;;2.22;0.90;;;9.00;61.40;;;;;;5028159;28;20482;-68
2022/04/17 00:19:06;;;;;;;1.63;1.10;;;9.00;62.10;;;;;;5032381;28;20096;-67
2022/04/17 00:21:32;;;;;;;1.50;1.15;;;9.00;61.40;;;;;;5030408;28;20073;-68
2022/04/17 00:23:58;;;;;;;1.42;0.90;;;9.00;60.90;;;;;;5028975;28;20035;-68
2022/04/17 00:26:24;;;;;;;1.33;0.82;;;9.00;61.40;;;;;;5029311;28;20052;-68
2022/04/17 00:28:49;;;;;;;3.92;1.40;;;9.00;61.20;;;;;;5013683;28;20502;-68
2022/04/17 00:31:15;;;;;;;1.77;1.00;;;8.90;63.20;;;;;;5032860;28;20052;-68
2022/04/17 00:33:41;;;;;;;1.75;1.00;;;8.90;62.30;;;;;;5028856;28;20127;-68
2022/04/17 00:36:06;;;;;;;1.10;1.00;;;8.90;61.60;;;;;;5031797;28;20053;-68
2022/04/17 00:38:32;;;;;;;1.58;1.23;;;8.90;63.10;;;;;;5033986;28;20041;-67
2022/04/17 00:40:57;;;;;;;1.52;1.05;;;8.80;62.40;;;;;;5032992;28;20131;-68
2022/04/17 00:43:25;;;;;;;1.88;0.82;;;8.80;63.70;;;;;;5014318;28;20041;-68
2022/04/17 00:45:51;;;;;;;1.00;0.90;;;8.80;62.80;;;;;;5026997;28;20111;-68
2022/04/17 00:48:17;;;;;;;1.27;1.10;;;8.80;63.70;;;;;;5032252;28;20405;-70
2022/04/17 00:50:44;;;;;;;14.90;1.83;;;8.80;63.90;;;;;;5032978;28;20500;-71
2022/04/17 00:53:10;;;;;;;1.10;0.90;;;8.70;65.90;;;;;;5030348;28;20127;-71
2022/04/17 00:55:36;;;;;;;1.30;1.00;;;8.70;66.60;;;;;;5032754;28;20033;-72
2022/04/17 00:58:02;;;;;;;1.17;1.08;;;8.60;66.80;;;;;;5031131;28;20045;-72
2022/04/17 01:00:27;;;;;;;1.23;1.13;;;8.60;66.80;;;;;;5029944;28;20042;-71
2022/04/17 01:02:53;;;;;;;1.20;1.08;;;8.40;67.10;;;;;;5029190;28;20037;-71
2022/04/17 01:05:19;;;;;;;2.67;1.30;;;8.30;69.70;;;;;;5030783;28;20490;-71
2022/04/17 01:07:46;;;;;;;1.40;1.20;;;8.20;69.60;;;;;;5035564;28;20053;-71
2022/04/17 01:10:12;;;;;;;1.33;0.85;;;8.10;69.40;;;;;;5034872;28;20529;-71
2022/04/17 01:12:37;;;;;;;1.90;1.38;;;8.00;70.10;;;;;;5035318;28;20045;-71
2022/04/17 01:15:04;;;;;;;2.35;1.10;;;8.00;71.50;;;;;;5036667;28;20517;-71
2022/04/17 01:17:30;;;;;;;1.67;1.00;;;7.90;70.30;;;;;;5035852;28;20056;-71
2022/04/17 01:19:55;;;;;;;3.53;1.00;;;7.80;70.20;;;;;;5032612;28;20061;-70
2022/04/17 01:22:21;;;;;;;1.30;1.02;;;7.80;71.10;;;;;;5027220;28;20035;-71
2022/04/17 01:27:31;;;;;;;2.28;1.55;;;7.80;70.10;;;;;;5031805;28;20095;-71
2022/04/17 01:29:56;;;;;;;1.20;1.00;;;7.70;71.60;;;;;;5027340;28;20132;-70
2022/04/17 01:32:22;;;;;;;2.50;1.30;;;7.70;70.80;;;;;;5034179;28;20215;-71
2022/04/17 01:34:49;;;;;;;2.20;1.40;;;7.60;70.30;;;;;;5031870;28;20116;-71
2022/04/17 01:37:15;;;;;;;1.88;1.20;;;7.60;71.00;;;;;;5014945;28;20131;-71
2022/04/17 01:39:41;;;;;;;1.40;1.00;;;7.50;71.20;;;;;;5040944;28;20124;-71
2022/04/17 01:42:07;;;;;;;2.83;1.73;;;7.50;70.90;;;;;;5032366;28;20033;-71
2022/04/17 01:44:33;;;;;;;1.15;1.02;;;7.50;71.60;;;;;;5036534;28;20071;-71
2022/04/17 01:47:00;;;;;;;1.20;1.10;;;7.40;71.00;;;;;;5038644;28;20048;-71
2022/04/17 01:49:26;;;;;;;1.88;1.30;;;7.30;71.10;;;;;;5038717;28;20029;-71
2022/04/17 01:51:53;;;;;;;1.70;1.15;;;7.30;71.30;;;;;;5031332;28;20289;-71
2022/04/17 01:54:19;;;;;;;1.60;1.10;;;7.20;71.70;;;;;;5032621;28;20092;-71
2022/04/17 01:56:49;;;;;;;1.65;1.20;;;7.00;71.90;;;;;;5030880;28;20071;-71
2022/04/17 01:59:16;;;;;;;1.60;1.30;;;7.00;71.40;;;;;;5033146;28;20037;-71
2022/04/17 02:01:42;;;;;;;1.98;1.10;;;7.00;70.40;;;;;;5031907;28;20531;-71
2022/04/17 02:04:09;;;;;;;1.75;1.27;;;6.90;70.70;;;;;;5033149;28;20051;-71
2022/04/17 02:06:36;;;;;;;2.10;1.00;;;6.80;71.00;;;;;;5033291;28;20045;-71
2022/04/17 02:09:03;;;;;;;1.23;1.13;;;6.80;70.70;;;;;;5040893;28;20068;-71
2022/04/17 02:11:28;;;;;;;2.35;1.10;;;6.70;70.30;;;;;;5039591;28;21312;-71
2022/04/17 02:13:55;;;;;;;1.60;1.20;;;6.70;70.30;;;;;;5036188;28;20049;-71
2022/04/17 02:16:20;;;;;;;1.70;1.25;;;6.70;69.60;;;;;;5033197;28;20041;-71
2022/04/17 02:18:47;;;;;;;1.80;0.90;;;6.60;71.90;;;;;;5037955;28;20171;-72
2022/04/17 02:21:14;;;;;;;1.80;1.40;;;6.60;70.70;;;;;;5035224;28;20048;-71
2022/04/17 02:23:41;;;;;;;1.92;1.35;;;6.50;69.10;;;;;;5040061;28;20685;-71
2022/04/17 02:26:08;;;;;;;2.15;1.35;;;6.50;70.40;;;;;;5036044;28;20060;-71
2022/04/17 02:28:35;;;;;;;2.30;1.20;;;6.40;71.20;;;;;;5018425;28;20033;-71
2022/04/17 02:31:05;;;;;;;1.55;1.10;;;6.40;69.30;;;;;;5036144;28;20124;-71
2022/04/17 02:33:31;;;;;;;3.55;1.35;;;6.30;70.00;;;;;;5042684;28;20151;-71
2022/04/17 02:35:58;;;;;;;1.17;0.93;;;6.30;70.20;;;;;;5033291;28;20128;-71
2022/04/17 02:38:24;;;;;;;1.15;1.02;;;6.30;70.80;;;;;;5035338;28;20041;-71
2022/04/17 02:40:50;;;;;;;1.92;1.33;;;6.10;71.30;;;;;;5035280;28;20072;-71
2022/04/17 02:43:16;;;;;;;1.90;1.58;;;6.00;72.10;;;;;;5034351;28;20651;-73
2022/04/17 02:45:42;;;;;;;2.55;1.30;;;5.90;71.40;;;;;;5030284;28;20053;-73
2022/04/17 02:48:07;;;;;;;2.50;1.58;;;5.90;71.70;;;;;;5030661;28;20033;-73
2022/04/17 02:50:33;;;;;;;1.38;1.02;;;5.90;72.40;;;;;;5029143;28;20532;-73
2022/04/17 02:52:59;;;;;;;2.30;1.55;;;5.90;72.70;;;;;;5028271;28;20055;-73
2022/04/17 02:55:25;;;;;;;2.88;1.20;;;5.90;72.40;;;;;;5035156;28;20033;-73
2022/04/17 02:57:51;;;;;;;1.90;1.05;;;5.80;72.10;;;;;;5026566;28;20529;-73
2022/04/17 03:00:17;;;;;;;1.50;1.40;;;5.80;72.30;;;;;;5026881;28;20119;-73
2022/04/17 03:05:36;;;;;;;2.03;1.08;;;5.70;73.80;;;;;;5027825;28;20528;-73
2022/04/17 03:08:11;;;;;;;1.20;1.10;;;5.70;72.70;;;;;;5026674;28;20052;-72
2022/04/17 03:10:38;;;;;;;1.73;1.17;;;5.60;73.10;;;;;;5033078;28;20519;-73
2022/04/17 03:13:05;;;;;;;1.50;1.40;;;5.60;72.90;;;;;;5031911;28;20037;-73
2022/04/17 03:15:39;;;;;;;5.18;1.23;;;5.60;72.60;;;;;;5028801;28;20061;-73
2022/04/17 03:18:06;;;;;;;2.88;1.02;;;5.60;73.10;;;;;;5035245;28;20029;-73
2022/04/17 03:20:32;;;;;;;3.03;1.33;;;5.50;73.70;;;;;;5037769;28;20126;-73
2022/04/17 03:22:58;;;;;;;2.10;1.33;;;5.40;73.30;;;;;;5038033;28;20120;-73
2022/04/17 03:25:23;;;;;;;5.38;1.98;;;5.40;73.50;;;;;;5038571;28;20040;-73
2022/04/17 03:27:49;;;;;;;1.50;1.20;;;5.40;73.70;;;;;;5034717;28;20235;-73
2022/04/17 03:30:16;;;;;;;1.35;1.10;;;5.30;73.60;;;;;;5036284;28;20119;-73
2022/04/17 03:32:43;;;;;;;1.75;1.38;;;5.30;73.90;;;;;;5036717;28;20033;-73
2022/04/17 03:35:10;;;;;;;3.67;1.20;;;5.30;74.10;;;;;;5033107;28;20460;-73
2022/04/17 03:37:36;;;;;;;1.58;1.30;;;5.30;73.90;;;;;;5036295;28;20041;-73
2022/04/17 03:40:02;;;;;;;4.43;1.27;;;5.20;74.40;;;;;;5038752;28;20037;-73
2022/04/17 03:42:28;;;;;;;1.48;1.13;;;5.20;74.90;;;;;;5039961;28;20044;-74
2022/04/17 03:44:54;;;;;;;1.15;1.00;;;5.20;74.90;;;;;;5035964;28;20580;-74
2022/04/17 03:47:19;;;;;;;3.35;1.70;;;5.10;74.00;;;;;;5032659;28;20116;-73
2022/04/17 03:49:45;;;;;;;3.30;1.55;;;5.20;74.70;;;;;;5030946;28;20049;-73
2022/04/17 03:52:11;;;;;;;3.58;1.95;;;5.10;74.60;;;;;;5018954;28;20037;-73
2022/04/17 03:54:37;;;;;;;2.10;1.77;;;5.10;74.50;;;;;;5035797;28;20852;-73
2022/04/17 03:57:03;;;;;;;2.75;1.70;;;5.00;75.20;;;;;;5028114;28;20053;-73
2022/04/17 03:59:31;;;;;;;1.65;1.50;;;5.00;75.70;;;;;;5035228;28;20056;-73
2022/04/17 04:01:58;;;;;;;2.05;1.60;;;4.90;76.20;;;;;;5029232;28;20037;-73
2022/04/17 04:04:23;;;;;;;1.70;1.35;;;4.80;76.50;;;;;;5035561;28;20084;-73
2022/04/17 04:06:50;;;;;;;3.13;2.28;;;4.80;76.90;;;;;;5024395;28;20121;-73
2022/04/17 04:09:16;;;;;;;1.58;1.40;;;4.80;76.70;;;;;;5036298;28;20044;-73
2022/04/17 04:11:43;;;;;;;3.13;2.33;;;4.70;77.10;;;;;;5031774;28;20127;-73
2022/04/17 04:14:10;;;;;;;3.45;2.03;;;4.60;78.10;;;;;;5027111;28;20036;-73
2022/04/17 04:16:36;;;;;;;1.98;1.45;;;4.50;78.70;;;;;;5030874;28;20057;-73
2022/04/17 04:19:02;;;;;;;6.90;2.80;;;4.50;79.30;;;;;;5015095;28;20608;-74
2022/04/17 04:21:28;;;;;;;4.32;2.45;;;4.40;81.00;;;;;;5034766;28;20032;-73
2022/04/17 04:23:55;;;;;;;6.70;3.80;;;4.30;80.00;;;;;;5032684;28;20056;-73
2022/04/17 04:26:20;;;;;;;5.20;2.90;;;4.30;80.70;;;;;;5031489;28;20128;-74
2022/04/17 04:28:46;;;;;;;13.07;5.13;;;4.40;81.10;;;;;;5021001;28;20045;-73
2022/04/17 04:31:13;;;;;;;7.13;4.43;;;4.50;81.00;;;;;;5032337;28;20053;-73
2022/04/17 04:33:40;;;;;;;5.30;3.33;;;4.50;81.30;;;;;;5037770;28;20148;-73
2022/04/17 04:36:10;;;;;;;4.32;2.80;;;4.50;80.90;;;;;;5026723;28;20057;-73
2022/04/17 04:38:36;;;;;;;3.22;2.22;;;4.60;80.60;;;;;;5035725;28;20091;-73
2022/04/17 04:41:03;;;;;;;2.10;1.90;;;4.70;81.30;;;;;;5035404;28;20135;-73
2022/04/17 04:43:28;;;;;;;3.20;1.80;;;4.70;82.20;;;;;;5018750;28;20134;-73
2022/04/17 04:46:06;;;;;;;2.83;1.80;;;4.70;83.30;;;;;;5036277;28;20162;-73
2022/04/17 04:51:17;;;;;;;2.85;1.52;;;4.70;83.70;;;;;;5031514;28;20052;-73
2022/04/17 04:53:43;;;;;;;2.25;1.40;;;4.70;84.30;;;;;;5031791;28;20045;-72
2022/04/17 04:56:09;;;;;;;6.00;3.67;;;4.70;83.90;;;;;;5035744;28;20409;-72
2022/04/17 04:58:35;;;;;;;3.72;2.70;;;4.80;82.30;;;;;;5033901;28;20206;-72
2022/04/17 05:01:00;;;;;;;3.17;2.20;;;4.90;82.70;;;;;;5032046;28;20739;-74
2022/04/17 05:03:26;;;;;;;9.43;6.63;;;5.00;83.60;;;;;;5037597;28;20045;-74
2022/04/17 05:05:52;;;;;;;16.98;10.20;;;5.20;82.70;;;;;;5033734;28;20049;-75
2022/04/17 05:08:21;;;;;;;30.48;16.63;;;5.40;79.60;;;;;;5032925;28;20045;-75
2022/04/17 05:10:47;;;;;;;16.98;10.30;;;5.70;78.20;;;;;;5034623;28;20049;-76
2022/04/17 05:13:13;;;;;;;15.88;9.32;;;5.90;76.60;;;;;;5036759;28;20049;-76
2022/04/17 05:15:39;;;;;;;7.45;4.88;;;6.10;77.20;;;;;;5037595;28;20498;-75
2022/04/17 05:18:06;;;;;;;4.70;2.50;;;6.20;77.60;;;;;;5034237;28;20045;-73
2022/04/17 05:20:32;;;;;;;7.32;2.72;;;6.30;74.90;;;;;;5041022;28;20033;-74
2022/04/17 05:23:03;;;;;;;3.75;2.67;;;6.40;76.30;;;;;;5052589;28;20037;-76
2022/04/17 05:25:30;;;;;;;3.22;2.60;;;6.60;75.10;;;;;;5042226;28;20041;-76
2022/04/17 05:27:56;;;;;;;3.00;2.28;;;6.70;74.40;;;;;;5038565;28;20036;-71
2022/04/17 05:30:21;;;;;;;2.90;2.35;;;6.80;75.50;;;;;;5039390;28;20062;-71
2022/04/17 05:32:47;;;;;;;3.80;2.30;;;6.90;74.30;;;;;;5034933;28;20737;-71
2022/04/17 05:35:13;;;;;;;4.47;2.00;;;7.00;74.20;;;;;;5038710;28;20227;-70
2022/04/17 05:37:38;;;;;;;2.47;2.22;;;7.10;74.30;;;;;;5030696;28;20053;-70
2022/04/17 05:40:04;;;;;;;6.18;5.43;;;7.30;73.40;;;;;;5036613;28;20029;-70
2022/04/17 05:42:30;;;;;;;2.55;1.98;;;7.50;70.20;;;;;;5037248;28;20445;-70
2022/04/17 05:44:56;;;;;;;2.92;2.03;;;7.70;70.10;;;;;;5037819;28;20045;-70
2022/04/17 05:47:22;;;;;;;1.85;1.17;;;7.80;69.00;;;;;;5029424;28;20048;-69
2022/04/17 05:49:48;;;;;;;3.45;2.72;;;8.00;65.20;;;;;;5034107;28;20413;-70
2022/04/17 05:52:14;;;;;;;11.55;8.73;;;8.10;63.30;;;;;;5036142;28;20600;-70
2022/04/17 05:54:43;;;;;;;1.83;1.40;;;8.20;64.80;;;;;;5039638;28;20030;-71
2022/04/17 05:57:09;;;;;;;2.47;1.42;;;8.30;64.80;;;;;;5037385;28;20057;-72
2022/04/17 05:59:36;;;;;;;1.60;1.17;;;8.50;62.60;;;;;;5034067;28;20033;-70
2022/04/17 06:02:05;;;;;;;1.50;1.40;;;8.40;60.00;;;;;;5036264;28;20639;-71
2022/04/17 06:04:31;;;;;;;1.00;0.90;;;8.50;58.90;;;;;;5036125;28;20033;-70
2022/04/17 06:06:56;;;;;;;1.10;1.00;;;8.50;57.50;;;;;;5039321;28;20540;-70
2022/04/17 06:09:22;;;;;;;3.17;1.60;;;8.50;58.70;;;;;;5035919;28;20072;-71
2022/04/17 06:11:48;;;;;;;1.75;1.65;;;8.80;60.40;;;;;;5030252;28;20059;-71
2022/04/17 06:14:13;;;;;;;1.85;1.10;;;9.00;58.40;;;;;;5033127;28;20385;-71
2022/04/17 06:16:40;;;;;;;0.98;0.85;;;9.00;58.60;;;;;;5031607;28;20650;-71
2022/04/17 06:19:09;;;;;;;1.40;1.00;;;9.10;58.70;;;;;;5038531;28;20037;-71
2022/04/17 06:21:36;;;;;;;2.08;1.23;;;9.20;57.10;;;;;;5035305;28;20041;-70
2022/04/17 06:24:01;;;;;;;1.17;1.00;;;9.20;56.20;;;;;;5040715;28;20184;-71
2022/04/17 06:26:27;;;;;;;2.15;1.30;;;9.40;55.30;;;;;;5033781;28;20077;-70
2022/04/17 06:28:53;;;;;;;2.05;0.80;;;9.40;54.60;;;;;;5036222;28;20504;-69
2022/04/17 06:31:18;;;;;;;1.25;1.02;;;9.50;55.70;;;;;;5036302;28;20493;-68
2022/04/17 06:33:44;;;;;;;3.28;2.97;;;9.60;54.90;;;;;;5032098;28;20052;-69
2022/04/17 06:36:10;;;;;;;1.40;0.95;;;9.60;54.90;;;;;;5036289;28;20071;-68
2022/04/17 06:38:35;;;;;;;2.65;1.30;;;9.70;55.90;;;;;;5033776;28;20059;-69
2022/04/17 06:41:01;;;;;;;1.60;0.90;;;9.90;54.10;;;;;;5030417;28;20359;-69
2022/04/17 06:43:27;;;;;;;4.32;2.88;;;10.00;53.60;;;;;;5017567;28;20052;-69
2022/04/17 06:45:52;;;;;;;1.30;1.20;;;10.10;53.00;;;;;;5039263;28;20037;-67
2022/04/17 06:48:23;;;;;;;2.38;1.55;;;10.10;55.10;;;;;;5019311;28;20091;-70
2022/04/17 06:50:51;;;;;;;2.13;1.02;;;10.20;53.60;;;;;;5013567;28;20738;-69
2022/04/17 06:53:17;;;;;;;3.75;2.63;;;10.30;53.40;;;;;;5028087;28;20251;-68
2022/04/17 06:55:43;;;;;;;2.75;1.10;;;10.40;53.40;;;;;;5032776;28;20025;-72
2022/04/17 06:58:08;;;;;;;2.17;0.90;;;10.20;51.30;;;;;;5037979;28;20435;-71
2022/04/17 07:00:36;;;;;;;1.63;0.90;;;10.00;50.40;;;;;;5034275;28;20068;-71
2022/04/17 07:03:01;;;;;;;4.38;1.30;;;10.10;52.80;;;;;;5035596;28;20032;-66
2022/04/17 07:05:27;;;;;;;3.45;3.15;;;10.30;54.40;;;;;;5030116;28;20039;-67
2022/04/17 07:08:04;;;;;;;2.22;1.23;;;10.30;53.50;;;;;;5024323;28;20052;-67
2022/04/17 07:10:31;;;;;;;3.60;1.25;;;10.30;53.20;;;;;;5034575;28;20082;-68
2022/04/17 07:12:58;;;;;;;1.55;0.90;;;10.20;53.90;;;;;;5030564;28;20029;-73
2022/04/17 07:15:24;;;;;;;1.27;0.75;;;10.30;51.50;;;;;;5035761;28;20106;-70
2022/04/17 07:17:51;;;;;;;2.88;1.00;;;10.30;51.40;;;;;;5028534;28;20029;-70
2022/04/17 07:20:17;;;;;;;2.88;0.90;;;10.30;51.60;;;;;;5027292;28;20057;-67
2022/04/17 07:22:43;;;;;;;4.32;2.50;;;10.20;50.90;;;;;;5031778;28;20588;-68
2022/04/17 07:25:11;;;;;;;1.70;1.00;;;10.30;52.40;;;;;;5036057;28;20025;-67
2022/04/17 07:27:55;;;;;;;4.85;1.20;;;10.30;53.10;;;;;;5031202;28;20028;-68
2022/04/17 07:30:23;;;;;;;3.70;2.42;;;10.40;52.80;;;;;;5027094;28;20037;-68
2022/04/17 07:32:52;;;;;;;1.83;1.10;;;10.50;54.10;;;;;;5025828;28;20064;-69
2022/04/17 07:35:18;;;;;;;4.78;0.90;;;10.60;52.20;;;;;;5032320;28;20033;-69
2022/04/17 07:38:10;;;;;;;18.30;11.35;;;10.60;50.80;;;;;;5036032;28;20371;-69
2022/04/17 07:40:36;;;;;;;4.60;4.00;;;10.60;52.20;;;;;;5025153;28;20049;-69
2022/04/17 07:43:05;;;;;;;19.75;13.27;;;10.50;52.90;;;;;;5025111;28;20113;-69
2022/04/17 07:45:33;;;;;;;46.83;31.75;;;10.80;52.50;;;;;;5029885;28;20640;-69
2022/04/17 07:47:59;;;;;;;37.67;26.20;;;10.90;50.90;;;;;;5038145;28;20588;-70
2022/04/17 07:50:29;;;;;;;62.38;43.97;;;10.90;53.30;;;;;;5038358;28;20041;-69
2022/04/17 07:52:55;;;;;;;2.47;1.88;;;10.90;53.30;;;;;;5034175;28;20048;-71
2022/04/17 07:55:22;;;;;;;1.88;1.60;;;11.00;49.90;;;;;;5031248;28;20033;-70
2022/04/17 08:00:35;;;;;;;45.42;31.23;;;11.20;51.50;;;;;;5034676;28;20717;-70
2022/04/17 08:03:08;;;;;;;;;;;11.20;51.00;;;;;;5033491;28;20041;-71
2022/04/17 08:05:38;;;;;;;6.13;5.10;;;11.30;50.30;;;;;;5030346;28;19972;-70
2022/04/17 08:08:04;;;;;;;19.98;17.67;;;11.10;49.70;;;;;;5025035;28;20169;-71
2022/04/17 08:10:30;;;;;;;0.98;0.88;;;11.00;49.60;;;;;;5027607;28;21088;-70
2022/04/17 08:12:56;;;;;;;4.85;4.38;;;11.00;50.00;;;;;;5028766;28;20045;-71
2022/04/17 08:15:21;;;;;;;25.90;6.55;;;11.10;51.00;;;;;;5034637;28;20033;-71
2022/04/17 08:17:47;;;;;;;1.27;0.70;;;11.10;51.60;;;;;;5031210;28;20140;-72
2022/04/17 08:20:13;;;;;;;4.07;3.33;;;11.30;48.60;;;;;;5031213;28;20040;-69
2022/04/17 08:22:38;;;;;;;1.73;1.42;;;11.40;48.70;;;;;;5035696;28;20115;-75
2022/04/17 08:25:04;;;;;;;1.63;1.50;;;11.30;49.70;;;;;;5009112;28;20038;-72
2022/04/17 08:27:30;;;;;;;0.75;0.75;;;11.40;50.20;;;;;;5016024;28;20095;-72
2022/04/17 08:29:56;;;;;;;3.42;3.13;;;11.50;48.00;;;;;;5028196;28;20948;-72
2022/04/17 08:32:21;;;;;;;2.55;2.35;;;11.70;48.40;;;;;;5034329;28;20444;-72
2022/04/17 08:34:47;;;;;;;2.13;1.70;;;11.70;47.80;;;;;;5028981;28;20119;-73
2022/04/17 08:37:12;;;;;;;0.77;0.65;;;11.60;48.30;;;;;;5018347;28;20792;-73
2022/04/17 08:39:38;;;;;;;3.60;1.00;;;11.60;48.70;;;;;;5009754;28;20061;-66
2022/04/17 08:42:06;;;;;;;2.45;0.75;;;11.70;46.80;;;;;;5020686;28;20504;-66
2022/04/17 08:44:32;;;;;;;2.65;2.45;;;11.50;47.50;;;;;;5028524;28;20072;-66
2022/04/17 08:46:57;;;;;;;1.98;1.80;;;11.50;49.20;;;;;;5024434;28;20110;-66
2022/04/17 08:49:24;;;;;;;2.40;2.10;;;11.60;48.30;;;;;;5010667;28;20045;-66
2022/04/17 08:51:53;;;;;;;2.88;0.57;;;11.60;48.10;;;;;;5035495;28;20052;-67
2022/04/17 08:54:20;;;;;;;1.23;1.00;;;11.70;47.30;;;;;;5031792;28;20037;-67
2022/04/17 08:56:45;;;;;;;1.30;1.20;;;11.60;47.50;;;;;;5020773;28;20804;-67
2022/04/17 08:59:11;;;;;;;3.67;0.90;;;11.70;49.00;;;;;;5029483;28;20163;-66
2022/04/17 09:01:37;;;;;;;1.27;0.95;;;11.60;49.00;;;;;;5030452;28;20033;-66
2022/04/17 09:04:03;;;;;;;0.80;0.80;;;11.60;47.00;;;;;;5038358;28;20060;-67
2022/04/17 09:06:30;;;;;;;1.10;1.00;;;11.60;48.20;;;;;;5034844;28;20450;-67
2022/04/17 09:09:05;;;;;;;1.02;0.85;;;11.60;49.00;;;;;;5032705;28;20033;-67
2022/04/17 09:11:33;;;;;;;1.48;1.30;;;11.70;48.60;;;;;;5039969;28;20397;-67
2022/04/17 09:14:05;;;;;;;1.35;0.90;;;11.80;50.70;;;;;;5031387;28;20037;-67
2022/04/17 09:16:34;;;;;;;0.70;0.70;;;12.00;47.30;;;;;;5037235;28;20049;-68
2022/04/17 09:19:15;;;;;;;0.85;0.80;;;12.20;47.70;;;;;;5030492;28;20051;-67
2022/04/17 09:21:41;;;;;;;1.50;0.80;;;12.30;47.30;;;;;;5035603;28;20083;-68
2022/04/17 09:24:26;;;;;;;1.02;1.00;;;12.00;45.20;;;;;;5035549;28;20056;-68
2022/04/17 09:26:54;;;;;;;1.08;0.85;;;11.80;47.90;;;;;;5038872;28;20064;-67
2022/04/17 09:29:23;;;;;;;1.35;0.90;;;11.80;47.90;;;;;;5030968;28;20481;-67
2022/04/17 09:32:02;;;;;;;2.70;0.90;;;11.70;46.70;;;;;;5035533;28;20068;-67
2022/04/17 09:34:41;;;;;;;1.38;0.93;;;11.50;47.70;;;;;;5028514;28;20052;-66
2022/04/17 09:37:12;;;;;;;1.83;1.65;;;11.20;49.40;;;;;;5008976;28;20049;-67
2022/04/17 09:39:38;;;;;;;4.57;4.17;;;11.10;48.80;;;;;;5034048;28;20132;-66
2022/04/17 09:42:05;;;;;;;1.30;1.00;;;11.20;49.60;;;;;;5036845;28;20147;-66
2022/04/17 09:44:47;;;;;;;0.70;0.57;;;11.30;49.10;;;;;;5030770;28;20038;-67
2022/04/17 09:47:20;;;;;;;1.50;1.23;;;11.30;48.20;;;;;;5033002;28;20047;-66
2022/04/17 09:50:03;;;;;;;1.50;0.70;;;11.30;48.60;;;;;;5031721;28;20119;-67
2022/04/17 09:52:31;;;;;;;1.45;0.95;;;11.40;46.40;;;;;;5028935;28;20049;-66
2022/04/17 09:54:59;;;;;;;0.88;0.80;;;11.30;47.30;;;;;;5031042;28;20029;-66
2022/04/17 09:57:57;;;;;;;1.58;1.38;;;11.30;47.10;;;;;;5011687;28;20052;-68
2022/04/17 10:00:23;;;;;;;0.90;0.57;;;11.60;47.10;;;;;;5011229;28;20056;-68
2022/04/17 10:02:49;;;;;;;1.63;1.13;;;11.80;45.40;;;;;;5028490;28;20037;-67
2022/04/17 10:05:17;;;;;;;5.30;3.72;;;11.80;46.90;;;;;;5029334;28;20780;-67
2022/04/17 10:07:50;;;;;;;3.72;2.42;;;11.70;47.10;;;;;;5025180;28;20047;-67
2022/04/17 10:10:17;;;;;;;0.60;0.60;;;11.70;48.80;;;;;;5029003;28;20053;-69
2022/04/17 10:12:45;;;;;;;0.80;0.70;;;11.70;46.40;;;;;;5032660;28;20101;-68
2022/04/17 10:15:11;;;;;;;4.55;1.38;;;11.90;46.60;;;;;;5028090;28;20470;-68
2022/04/17 10:17:40;;;;;;;1.35;1.23;;;12.00;47.80;;;;;;5030557;28;20122;-68
2022/04/17 10:20:11;;;;;;;3.58;1.02;;;12.00;49.60;;;;;;5032297;28;20041;-68
2022/04/17 10:22:40;;;;;;;0.93;0.70;;;12.20;49.00;;;;;;5034112;28;20075;-69
2022/04/17 10:25:09;;;;;;;0.77;0.77;;;12.50;47.50;;;;;;5033791;28;20088;-69
2022/04/17 10:27:46;;;;;;;1.00;0.60;;;12.70;45.10;;;;;;5017307;28;20037;-67
2022/04/17 10:30:15;;;;;;;1.10;0.93;;;12.80;44.20;;;;;;5027597;28;20041;-66
2022/04/17 10:33:09;;;;;;;3.03;1.15;;;12.80;44.90;;;;;;5034679;28;20077;-66
2022/04/17 10:35:38;;;;;;;1.15;0.77;;;12.80;43.70;;;;;;5031513;28;20247;-68
2022/04/17 10:38:18;;;;;;;1.63;0.68;;;12.60;43.50;;;;;;5033725;28;20047;-67
2022/04/17 10:40:53;;;;;;;1.63;1.15;;;12.70;44.70;;;;;;5030265;28;20041;-68
2022/04/17 10:43:20;;;;;;;0.95;0.80;;;12.80;43.90;;;;;;5032392;28;20119;-70
2022/04/17 10:46:11;;;;;;;1.00;0.82;;;12.90;42.10;;;;;;5030195;28;20041;-68
2022/04/17 10:48:47;;;;;;;3.90;0.70;;;12.80;45.00;;;;;;5027908;28;20041;-65
2022/04/17 10:51:21;;;;;;;1.27;0.50;;;12.90;46.60;;;;;;5029717;28;20033;-67
2022/04/17 10:54:10;;;;;;;0.65;0.65;;;12.90;42.70;;;;;;5028951;28;20036;-69
2022/04/17 10:57:00;;;;;;;1.25;0.60;;;12.80;43.00;;;;;;5028888;28;20053;-69
2022/04/17 10:59:33;;;;;;;1.48;0.47;;;12.90;42.60;;;;;;5028683;28;20034;-69
2022/04/17 11:02:07;;;;;;;1.08;0.60;;;12.90;43.80;;;;;;5029123;28;20033;-69
2022/04/17 11:04:53;;;;;;;1.08;0.70;;;13.00;46.60;;;;;;5032707;28;20045;-70
2022/04/17 11:07:20;;;;;;;0.90;0.50;;;13.30;46.20;;;;;;5029832;28;20091;-70
2022/04/17 11:09:46;;;;;;;0.73;0.70;;;13.50;43.20;;;;;;5034626;28;20033;-69
2022/04/17 11:12:17;;;;;;;0.73;0.57;;;13.30;41.00;;;;;;5026130;28;20037;-71
2022/04/17 11:15:01;;;;;;;0.73;0.73;;;13.10;42.30;;;;;;5033733;28;20045;-70
2022/04/17 11:17:28;;;;;;;1.13;1.02;;;13.00;42.20;;;;;;5036408;28;20547;-71
2022/04/17 11:20:01;;;;;;;0.80;0.80;;;12.90;44.30;;;;;;5028714;28;20044;-71
2022/04/17 11:22:32;;;;;;;2.50;0.70;;;13.10;45.60;;;;;;5027200;28;20037;-70
2022/04/17 11:24:58;;;;;;;6.03;2.08;;;13.20;43.30;;;;;;5030249;28;20051;-67
2022/04/17 11:27:49;;;;;;;0.98;0.80;;;13.40;44.70;;;;;;5033392;28;20092;-68
2022/04/17 11:30:14;;;;;;;2.05;0.80;;;13.40;41.40;;;;;;5028208;28;20032;-67
2022/04/17 11:32:40;;;;;;;3.40;0.93;;;13.40;41.40;;;;;;5008243;28;20038;-65
2022/04/17 11:35:11;;;;;;;1.08;0.80;;;13.30;42.90;;;;;;5029833;28;20454;-65
2022/04/17 11:37:37;;;;;;;1.85;0.70;;;13.40;41.20;;;;;;5032609;28;24888;-65
2022/04/17 11:40:15;;;;;;;1.25;1.05;;;13.20;41.50;;;;;;5034028;28;20065;-65
2022/04/17 11:42:42;;;;;;;1.30;0.80;;;13.10;43.30;;;;;;5023965;28;20043;-66
2022/04/17 11:45:09;;;;;;;1.55;0.88;;;13.20;44.60;;;;;;5022048;28;20550;-65
2022/04/17 11:47:39;;;;;;;12.02;1.15;;;13.10;44.20;;;;;;5026095;28;20128;-67
2022/04/17 11:50:10;;;;;;;2.80;1.00;;;13.00;43.10;;;;;;5035678;28;20033;-66
2022/04/17 11:52:36;;;;;;;1.17;0.82;;;13.00;43.90;;;;;;5032435;28;20071;-66
2022/04/17 11:55:03;;;;;;;2.35;1.13;;;13.10;44.80;;;;;;5035242;28;20021;-66
2022/04/17 11:57:29;;;;;;;2.75;0.80;;;13.20;47.00;;;;;;5032477;28;20115;-66
2022/04/17 11:59:56;;;;;;;4.25;1.50;;;13.60;47.60;;;;;;5036463;28;20474;-67
2022/04/17 12:02:27;;;;;;;1.65;0.80;;;13.90;46.40;;;;;;5033620;28;20316;-65
2022/04/17 12:05:16;;;;;;;2.60;0.63;;;14.10;42.20;;;;;;5034220;28;20953;-68
2022/04/17 12:07:43;;;;;;;0.60;0.60;;;13.80;40.00;;;;;;5034458;28;20075;-68
2022/04/17 12:10:13;;;;;;;0.73;0.73;;;13.30;42.90;;;;;;5013352;28;20090;-68
2022/04/17 12:12:44;;;;;;;1.20;0.70;;;13.20;44.80;;;;;;5035026;28;20620;-67
2022/04/17 12:15:15;;;;;;;2.22;0.50;;;13.10;43.20;;;;;;5035768;28;20355;-68
2022/04/17 12:17:41;;;;;;;0.63;0.50;;;13.00;44.80;;;;;;5034223;28;20045;-69
2022/04/17 12:20:09;;;;;;;1.25;0.73;;;13.20;44.00;;;;;;5037295;28;20036;-67
2022/04/17 12:22:36;;;;;;;1.02;0.82;;;13.40;44.40;;;;;;5036075;28;20049;-67
2022/04/17 12:25:02;;;;;;;1.00;0.90;;;13.70;44.10;;;;;;5035735;28;20033;-66
2022/04/17 12:27:27;;;;;;;2.25;0.77;;;13.90;41.60;;;;;;5036634;28;20033;-66
2022/04/17 12:29:56;;;;;;;1.45;0.80;;;13.90;41.40;;;;;;5028916;28;20051;-67
2022/04/17 12:32:24;;;;;;;1.73;1.63;;;13.80;44.30;;;;;;5033256;28;20040;-67
2022/04/17 12:35:00;;;;;;;0.60;0.60;;;13.70;45.10;;;;;;5032489;28;20379;-67
2022/04/17 12:37:33;;;;;;;0.80;0.80;;;13.60;43.20;;;;;;5011336;28;20057;-67
2022/04/17 12:40:13;;;;;;;7.22;5.43;;;13.30;46.10;;;;;;5039500;28;20082;-68
2022/04/17 12:42:40;;;;;;;3.75;3.38;;;13.10;46.00;;;;;;5029225;28;20041;-66
2022/04/17 12:45:08;;;;;;;1.35;0.80;;;12.90;45.60;;;;;;5027941;28;20033;-66
2022/04/17 12:47:36;;;;;;;0.77;0.77;;;12.90;45.00;;;;;;5032778;28;20037;-66
2022/04/17 12:50:11;;;;;;;1.15;0.93;;;13.10;44.30;;;;;;5033525;28;20044;-66
2022/04/17 12:52:37;;;;;;;1.33;1.17;;;13.40;43.30;;;;;;5032387;28;20024;-67
2022/04/17 12:55:10;;;;;;;9.75;1.15;;;13.40;45.80;;;;;;5021358;28;20529;-66
2022/04/17 12:57:37;;;;;;;2.55;0.70;;;13.30;45.10;;;;;;5039045;28;21550;-67
2022/04/17 13:00:14;;;;;;;2.25;0.73;;;13.20;45.60;;;;;;5037881;28;20037;-68
2022/04/17 13:02:41;;;;;;;1.25;0.80;;;13.20;44.80;;;;;;5035996;28;20116;-68
2022/04/17 13:05:07;;;;;;;0.85;0.68;;;13.20;46.00;;;;;;5017696;28;20045;-68
2022/04/17 13:07:34;;;;;;;0.60;0.60;;;13.40;46.50;;;;;;5031017;28;20128;-68